createdAt,value
2023-02-24T00:02:01.596Z,1.41
2023-02-24T00:04:39.742Z,1.38
2023-02-24T00:07:11.648Z,1.35
2023-02-24T00:09:39.362Z,1.34
2023-02-24T00:12:12.998Z,1.32
2023-02-24T00:14:42.095Z,1.31
2023-02-24T00:17:10.102Z,1.33
2023-02-24T00:19:38.448Z,1.31
2023-02-24T00:22:07.186Z,1.26
2023-02-24T00:24:34.688Z,1.23
2023-02-24T00:27:07.625Z,1.24
2023-02-24T00:29:37.506Z,1.23
2023-02-24T00:32:07.124Z,1.21
2023-02-24T00:34:36.718Z,1.18
2023-02-24T00:37:07.069Z,1.15
2023-02-24T00:39:34.920Z,1.10
2023-02-24T00:42:06.806Z,1.02
2023-02-24T00:44:44.450Z,0.98
2023-02-24T00:47:12.581Z,0.94
2023-02-24T00:49:42.308Z,0.93
2023-02-24T00:52:21.891Z,0.93
2023-02-24T00:54:51.177Z,0.84
2023-02-24T00:57:19.818Z,0.80
2023-02-24T00:59:47.668Z,0.82
2023-02-24T01:02:15.198Z,0.79
2023-02-24T01:04:44.442Z,0.74
2023-02-24T01:07:13.420Z,0.73
2023-02-24T01:09:41.705Z,0.73
2023-02-24T01:12:29.294Z,0.64
2023-02-24T01:14:55.864Z,0.60
2023-02-24T01:17:22.983Z,0.57
2023-02-24T01:19:50.247Z,0.56
2023-02-24T01:22:18.891Z,0.54
2023-02-24T01:24:46.870Z,0.51
2023-02-24T01:27:17.395Z,0.49
2023-02-24T01:29:44.484Z,0.47
2023-02-24T01:32:17.092Z,0.41
2023-02-24T01:34:44.908Z,0.40
2023-02-24T01:37:16.264Z,0.39
2023-02-24T01:39:45.803Z,0.36
2023-02-24T01:42:19.668Z,0.36
2023-02-24T01:44:46.478Z,0.32
2023-02-24T01:47:15.291Z,0.29
2023-02-24T01:49:45.011Z,0.28
2023-02-24T01:52:17.986Z,0.24
2023-02-24T01:54:52.007Z,0.16
2023-02-24T01:57:20.975Z,0.15
2023-02-24T01:59:49.691Z,0.15
2023-02-24T02:02:17.229Z,0.13
2023-02-24T02:04:57.035Z,0.09
2023-02-24T02:07:28.499Z,0.04
2023-02-24T02:10:02.724Z,0.04
2023-02-24T02:12:32.748Z,0.06
2023-02-24T02:15:01.758Z,0.08
2023-02-24T02:17:55.498Z,0.06
2023-02-24T02:20:33.863Z,0.03
2023-02-24T02:23:33.253Z,0.04
2023-02-24T02:26:19.543Z,0.08
2023-02-24T02:29:04.270Z,0.04
2023-02-24T02:32:09.414Z,0.02
2023-02-24T02:34:38.496Z,-0.03
2023-02-24T02:37:26.841Z,-0.07
2023-02-24T02:40:18.809Z,-0.11
2023-02-24T02:42:54.630Z,-0.14
2023-02-24T02:45:59.421Z,-0.16
2023-02-24T02:48:41.540Z,-0.19
2023-02-24T02:51:16.910Z,-0.20
2023-02-24T02:54:12.520Z,-0.20
2023-02-24T02:57:08.006Z,-0.20
2023-02-24T02:59:41.618Z,-0.20
2023-02-24T03:02:15.142Z,-0.23
2023-02-24T03:04:51.159Z,-0.26
2023-02-24T03:07:22.522Z,-0.29
2023-02-24T03:09:55.896Z,-0.30
2023-02-24T03:12:26.909Z,-0.32
2023-02-24T03:14:59.009Z,-0.35
2023-02-24T03:17:30.474Z,-0.33
2023-02-24T03:20:12.592Z,-0.33
2023-02-24T03:23:02.965Z,-0.33
2023-02-24T03:25:44.761Z,-0.34
2023-02-24T03:28:22.474Z,-0.32
2023-02-24T03:31:03.536Z,-0.33
2023-02-24T03:33:41.810Z,-0.32
2023-02-24T03:36:08.865Z,-0.31
2023-02-24T03:38:38.658Z,-0.28
2023-02-24T03:41:11.055Z,-0.26
2023-02-24T03:43:47.252Z,-0.21
2023-02-24T03:46:16.943Z,-0.20
2023-02-24T03:48:51.139Z,-0.19
2023-02-24T03:51:20.767Z,-0.19
2023-02-24T03:54:02.690Z,-0.17
2023-02-24T03:57:06.229Z,-0.14
2023-02-24T03:59:42.211Z,-0.10
2023-02-24T04:02:30.890Z,-0.07
2023-02-24T04:05:14.842Z,-0.07
2023-02-24T04:07:54.827Z,-0.08
2023-02-24T04:10:37.655Z,-0.05
2023-02-24T04:13:22.668Z,-0.02
2023-02-24T04:16:01.610Z,0.01
2023-02-24T04:18:34.032Z,0.05
2023-02-24T04:21:04.343Z,0.09
2023-02-24T04:23:41.421Z,0.11
2023-02-24T04:26:12.649Z,0.14
2023-02-24T04:28:41.301Z,0.16
2023-02-24T04:31:17.403Z,0.20
2023-02-24T04:33:50.194Z,0.23
2023-02-24T04:36:21.207Z,0.26
2023-02-24T04:38:48.677Z,0.27
2023-02-24T04:41:22.145Z,0.31
2023-02-24T04:43:53.080Z,0.34
2023-02-24T04:46:19.807Z,0.38
2023-02-24T04:48:46.496Z,0.40
2023-02-24T04:51:13.736Z,0.43
2023-02-24T04:53:40.643Z,0.43
2023-02-24T04:56:08.918Z,0.43
2023-02-24T04:58:39.908Z,0.44
2023-02-24T05:01:12.668Z,0.43
2023-02-24T05:03:42.662Z,0.43
2023-02-24T05:06:16.022Z,0.44
2023-02-24T05:08:43.010Z,0.45
2023-02-24T05:11:18.869Z,0.47
2023-02-24T05:13:47.304Z,0.46
2023-02-24T05:16:17.322Z,0.46
2023-02-24T05:18:47.205Z,0.46
2023-02-24T05:21:34.913Z,0.46
2023-02-24T05:24:06.665Z,0.49
2023-02-24T05:26:38.214Z,0.50
2023-02-24T05:29:08.463Z,0.51
2023-02-24T05:31:35.419Z,0.50
2023-02-24T05:34:05.860Z,0.52
2023-02-24T05:36:40.116Z,0.53
2023-02-24T05:39:07.848Z,0.53
2023-02-24T05:41:37.724Z,0.55
2023-02-24T05:44:08.734Z,0.54
2023-02-24T05:46:38.408Z,0.55
2023-02-24T05:49:11.337Z,0.55
2023-02-24T05:51:43.554Z,0.56
2023-02-24T05:54:13.611Z,0.56
2023-02-24T05:56:44.756Z,0.58
2023-02-24T05:59:13.396Z,0.59
2023-02-24T06:01:41.793Z,0.59
2023-02-24T06:04:09.671Z,0.59
2023-02-24T06:06:38.962Z,0.61
2023-02-24T06:09:17.410Z,0.64
2023-02-24T06:11:45.224Z,0.67
2023-02-24T06:14:16.004Z,0.68
2023-02-24T06:16:46.693Z,0.71
2023-02-24T06:19:14.700Z,0.72
2023-02-24T06:21:42.557Z,0.75
2023-02-24T06:24:14.435Z,0.76
2023-02-24T06:26:45.493Z,0.76
2023-02-24T06:29:14.578Z,0.79
2023-02-24T06:31:42.544Z,0.81
2023-02-24T06:34:11.806Z,0.84
2023-02-24T06:36:39.431Z,0.86
2023-02-24T06:39:08.126Z,0.87
2023-02-24T06:41:35.723Z,0.91
2023-02-24T06:44:02.246Z,0.93
2023-02-24T06:46:28.956Z,0.95
2023-02-24T06:48:58.705Z,0.97
2023-02-24T06:51:29.999Z,1.00
2023-02-24T06:53:59.341Z,1.05
2023-02-24T06:56:32.357Z,1.10
2023-02-24T06:58:59.210Z,1.11
2023-02-24T07:01:29.038Z,1.14
2023-02-24T07:04:07.836Z,1.14
2023-02-24T07:06:38.136Z,1.18
2023-02-24T07:09:08.577Z,1.20
2023-02-24T07:11:36.895Z,1.24
2023-02-24T07:14:05.662Z,1.27
2023-02-24T07:16:34.600Z,1.31
2023-02-24T07:19:04.042Z,1.33
2023-02-24T07:21:39.538Z,1.35
2023-02-24T07:24:20.229Z,1.39
2023-02-24T07:26:51.732Z,1.42
2023-02-24T07:29:18.415Z,1.46
2023-02-24T07:31:45.033Z,1.49
2023-02-24T07:34:15.039Z,1.53
2023-02-24T07:36:49.189Z,1.56
2023-02-24T07:39:17.332Z,1.62
2023-02-24T07:41:49.808Z,1.66
2023-02-24T07:44:18.683Z,1.72
2023-02-24T07:46:46.437Z,1.73
2023-02-24T07:49:15.124Z,1.77
2023-02-24T07:51:42.840Z,1.81
2023-02-24T07:54:11.745Z,1.84
2023-02-24T07:56:46.261Z,1.88
2023-02-24T07:59:16.055Z,1.91
2023-02-24T08:01:49.719Z,1.94
2023-02-24T08:04:19.286Z,1.95
2023-02-24T08:06:48.050Z,1.98
2023-02-24T08:09:18.479Z,2.01
2023-02-24T08:11:53.769Z,2.05
2023-02-24T08:14:24.142Z,2.07
2023-02-24T08:17:01.229Z,2.10
2023-02-24T08:19:45.230Z,2.12
2023-02-24T08:25:00.664Z,2.20
2023-02-24T08:27:32.114Z,2.24
2023-02-24T08:30:00.129Z,2.27
2023-02-24T08:32:44.781Z,2.33
2023-02-24T08:35:23.038Z,2.40
2023-02-24T08:41:21.102Z,2.51
2023-02-24T08:43:50.746Z,2.55
2023-02-24T08:46:26.092Z,2.60
2023-02-24T08:49:00.756Z,2.62
2023-02-24T08:51:34.713Z,2.63
2023-02-24T08:54:15.259Z,2.65
2023-02-24T08:56:49.171Z,2.70
2023-02-24T08:59:38.566Z,2.70
2023-02-24T09:02:17.484Z,2.72
2023-02-24T09:04:49.339Z,2.77
2023-02-24T09:07:19.206Z,2.81
2023-02-24T09:09:45.631Z,2.84
2023-02-24T09:12:24.666Z,2.90
2023-02-24T09:14:55.458Z,2.95
2023-02-24T09:17:45.282Z,3.02
2023-02-24T09:20:30.619Z,3.09
2023-02-24T09:23:07.272Z,3.16
2023-02-24T09:25:49.590Z,3.24
2023-02-24T09:28:48.581Z,3.32
2023-02-24T09:31:19.333Z,3.42
2023-02-24T09:33:50.993Z,3.48
2023-02-24T09:36:27.768Z,3.55
2023-02-24T09:38:59.579Z,3.62
2023-02-24T09:42:04.799Z,3.65
2023-02-24T09:44:52.730Z,3.70
2023-02-24T09:47:51.347Z,3.73
2023-02-24T09:50:40.679Z,3.72
2023-02-24T09:53:17.200Z,3.72
2023-02-24T09:56:05.645Z,3.74
2023-02-24T09:59:10.333Z,3.74
2023-02-24T10:02:06.106Z,3.77
2023-02-24T10:04:53.756Z,3.81
2023-02-24T10:07:30.010Z,3.84
2023-02-24T10:10:21.049Z,3.84
2023-02-24T10:13:13.850Z,3.86
2023-02-24T10:15:58.795Z,3.87
2023-02-24T10:18:48.499Z,3.89
2023-02-24T10:21:48.264Z,3.93
2023-02-24T10:24:37.590Z,3.94
2023-02-24T10:27:25.809Z,3.98
2023-02-24T10:30:27.875Z,3.96
2023-02-24T10:33:04.988Z,3.96
2023-02-24T10:35:33.757Z,3.99
2023-02-24T10:38:05.366Z,4.03
2023-02-24T10:40:46.794Z,4.08
2023-02-24T10:43:19.211Z,4.11
2023-02-24T10:45:47.717Z,4.11
2023-02-24T10:48:42.778Z,4.11
2023-02-24T10:51:20.421Z,4.12
2023-02-24T10:54:10.366Z,4.14
2023-02-24T10:56:45.056Z,4.14
2023-02-24T10:59:24.159Z,4.17
2023-02-24T11:01:59.760Z,4.22
2023-02-24T11:04:55.768Z,4.29
2023-02-24T11:07:25.028Z,4.36
2023-02-24T11:10:13.641Z,4.41
2023-02-24T11:13:10.361Z,4.40
2023-02-24T11:16:06.678Z,4.40
2023-02-24T11:18:33.999Z,4.41
2023-02-24T11:21:04.264Z,4.46
2023-02-24T11:23:38.346Z,4.52
2023-02-24T11:26:26.655Z,4.61
2023-02-24T11:29:20.335Z,4.67
2023-02-24T11:32:12.152Z,4.73
2023-02-24T11:34:49.377Z,4.78
2023-02-24T11:37:28.194Z,4.81
2023-02-24T11:40:23.842Z,4.85
2023-02-24T11:43:18.531Z,4.89
2023-02-24T11:45:57.105Z,4.92
2023-02-24T11:48:29.875Z,4.95
2023-02-24T11:51:07.509Z,4.97
2023-02-24T11:53:42.207Z,4.99
2023-02-24T11:56:36.286Z,5.01
2023-02-24T11:59:09.308Z,5.02
2023-02-24T12:01:43.188Z,5.04
2023-02-24T12:04:18.873Z,5.06
2023-02-24T12:06:57.879Z,5.16
2023-02-24T12:09:30.501Z,5.33
2023-02-24T12:12:08.522Z,5.59
2023-02-24T12:14:42.742Z,5.77
2023-02-24T12:17:30.813Z,5.91
2023-02-24T12:20:27.973Z,6.43
2023-02-24T12:23:08.894Z,6.67
2023-02-24T12:26:08.863Z,7.21
2023-02-24T12:29:05.293Z,7.11
2023-02-24T12:31:54.239Z,6.90
2023-02-24T12:34:28.114Z,6.86
2023-02-24T12:37:12.923Z,6.78
2023-02-24T12:40:01.233Z,6.88
2023-02-24T12:42:55.823Z,7.04
2023-02-24T12:45:45.342Z,7.10
2023-02-24T12:48:30.401Z,7.21
2023-02-24T12:51:24.889Z,7.57
2023-02-24T12:54:22.621Z,8.18
2023-02-24T12:56:54.585Z,8.48
2023-02-24T12:59:27.112Z,8.33
2023-02-24T13:02:14.429Z,8.34
2023-02-24T13:04:56.077Z,8.44
2023-02-24T13:07:36.986Z,8.29
2023-02-24T13:10:28.088Z,8.09
2023-02-24T13:13:13.760Z,7.79
2023-02-24T13:15:51.187Z,7.64
2023-02-24T13:18:31.616Z,7.48
2023-02-24T13:21:19.907Z,7.31
2023-02-24T13:24:11.103Z,7.28
2023-02-24T13:26:37.582Z,7.53
2023-02-24T13:29:14.311Z,7.83
2023-02-24T13:31:45.663Z,7.89
2023-02-24T13:34:33.899Z,7.86
2023-02-24T13:37:00.479Z,7.83
2023-02-24T13:39:41.348Z,7.77
2023-02-24T13:42:28.910Z,7.66
2023-02-24T13:45:17.364Z,7.52
2023-02-24T13:47:43.850Z,6.95
2023-02-24T13:50:32.710Z,6.57
2023-02-24T13:53:30.447Z,6.40
2023-02-24T13:56:25.262Z,6.30
2023-02-24T13:59:19.818Z,6.26
2023-02-24T14:01:57.238Z,6.22
2023-02-24T14:04:30.823Z,6.25
2023-02-24T14:07:10.317Z,6.38
2023-02-24T14:09:43.045Z,6.61
2023-02-24T14:12:26.581Z,6.73
2023-02-24T14:14:54.049Z,6.78
2023-02-24T14:17:31.505Z,6.86
2023-02-24T14:20:04.270Z,6.97
2023-02-24T14:22:30.765Z,7.08
2023-02-24T14:25:09.563Z,7.21
2023-02-24T14:27:38.321Z,7.23
2023-02-24T14:30:06.879Z,7.16
2023-02-24T14:32:34.445Z,7.08
2023-02-24T14:35:01.018Z,6.95
2023-02-24T14:37:30.853Z,6.94
2023-02-24T14:40:00.724Z,6.88
2023-02-24T14:42:28.157Z,6.81
2023-02-24T14:44:57.117Z,6.74
2023-02-24T14:47:26.299Z,6.65
2023-02-24T14:49:59.821Z,6.55
2023-02-24T14:52:58.451Z,6.46
2023-02-24T14:55:35.216Z,6.37
2023-02-24T14:58:15.381Z,6.30
2023-02-24T15:00:58.298Z,6.22
2023-02-24T15:03:26.910Z,6.13
2023-02-24T15:05:57.959Z,6.13
2023-02-24T15:08:30.691Z,6.17
2023-02-24T15:10:58.149Z,6.20
2023-02-24T15:13:42.146Z,6.21
2023-02-24T15:16:25.954Z,6.24
2023-02-24T15:18:56.054Z,6.26
2023-02-24T15:21:27.546Z,6.29
2023-02-24T15:24:18.559Z,6.31
2023-02-24T15:26:56.237Z,6.32
2023-02-24T15:29:28.635Z,6.31
2023-02-24T15:31:57.362Z,6.30
2023-02-24T15:34:28.129Z,6.33
2023-02-24T15:37:01.594Z,6.36
2023-02-24T15:39:31.999Z,6.39
2023-02-24T15:42:17.848Z,6.46
2023-02-24T15:44:55.008Z,6.56
2023-02-24T15:47:24.580Z,6.67
2023-02-24T15:49:51.122Z,6.73
2023-02-24T15:52:23.052Z,6.74
2023-02-24T15:54:53.378Z,6.73
2023-02-24T15:57:21.383Z,6.64
2023-02-24T15:59:50.899Z,6.57
2023-02-24T16:02:21.228Z,6.50
2023-02-24T16:04:49.216Z,6.46
2023-02-24T16:07:26.464Z,6.41
2023-02-24T16:09:54.796Z,6.38
2023-02-24T16:12:28.664Z,6.31
2023-02-24T16:15:06.752Z,6.19
2023-02-24T16:17:37.573Z,6.10
2023-02-24T16:20:09.029Z,6.00
2023-02-24T16:22:35.849Z,5.93
2023-02-24T16:25:04.066Z,5.91
2023-02-24T16:27:31.396Z,5.91
2023-02-24T16:30:00.030Z,5.93
2023-02-24T16:32:29.862Z,5.91
2023-02-24T16:34:57.052Z,5.88
2023-02-24T16:37:27.058Z,5.86
2023-02-24T16:39:53.720Z,5.84
2023-02-24T16:42:22.025Z,5.81
2023-02-24T16:44:49.004Z,5.80
2023-02-24T16:47:20.540Z,5.74
2023-02-24T16:49:47.200Z,5.69
2023-02-24T16:52:13.841Z,5.64
2023-02-24T16:54:42.525Z,5.58
2023-02-24T16:57:08.972Z,5.53
2023-02-24T16:59:35.466Z,5.47
2023-02-24T17:02:02.972Z,5.40
2023-02-24T17:04:31.966Z,5.36
2023-02-24T17:06:58.726Z,5.35
2023-02-24T17:09:30.016Z,5.37
2023-02-24T17:11:57.471Z,5.37
2023-02-24T17:14:30.182Z,5.30
2023-02-24T17:16:58.389Z,5.22
2023-02-24T17:19:25.054Z,5.17
2023-02-24T17:21:51.596Z,5.13
2023-02-24T17:24:20.664Z,5.04
2023-02-24T17:26:47.170Z,4.99
2023-02-24T17:29:14.636Z,4.94
2023-02-24T17:31:42.199Z,4.94
2023-02-24T17:34:09.392Z,4.96
2023-02-24T17:36:37.560Z,4.99
2023-02-24T17:39:04.094Z,4.97
2023-02-24T17:41:30.728Z,4.93
2023-02-24T17:43:57.266Z,4.90
2023-02-24T17:46:24.113Z,4.88
2023-02-24T17:48:54.689Z,4.88
2023-02-24T17:51:23.232Z,4.89
2023-02-24T17:53:49.844Z,4.88
2023-02-24T17:56:16.454Z,4.87
2023-02-24T17:58:42.905Z,4.87
2023-02-24T18:01:11.160Z,4.89
2023-02-24T18:03:37.803Z,4.93
2023-02-24T18:06:09.864Z,4.95
2023-02-24T18:08:38.087Z,4.92
2023-02-24T18:11:09.233Z,4.85
2023-02-24T18:13:35.732Z,4.76
2023-02-24T18:16:09.772Z,4.71
2023-02-24T18:18:45.056Z,4.67
2023-02-24T18:21:11.928Z,4.60
2023-02-24T18:23:40.986Z,4.53
2023-02-24T18:26:10.152Z,4.49
2023-02-24T18:28:37.087Z,4.48
2023-02-24T18:31:16.199Z,4.46
2023-02-24T18:33:43.826Z,4.40
2023-02-24T18:36:11.319Z,4.33
2023-02-24T18:38:39.342Z,4.31
2023-02-24T18:41:11.720Z,4.28
2023-02-24T18:43:38.619Z,4.26
2023-02-24T18:46:07.241Z,4.24
2023-02-24T18:48:34.866Z,4.26
2023-02-24T18:51:02.109Z,4.24
2023-02-24T18:53:33.554Z,4.20
2023-02-24T18:56:08.912Z,4.17
2023-02-24T18:58:37.102Z,4.15
2023-02-24T19:01:15.991Z,4.16
2023-02-24T19:03:43.579Z,4.16
2023-02-24T19:06:11.545Z,4.15
2023-02-24T19:08:39.698Z,4.11
2023-02-24T19:11:08.597Z,4.06
2023-02-24T19:13:35.093Z,4.01
2023-02-24T19:16:02.715Z,4.00
2023-02-24T19:18:29.385Z,4.00
2023-02-24T19:20:56.006Z,4.01
2023-02-24T19:23:22.784Z,3.99
2023-02-24T19:25:49.330Z,3.97
2023-02-24T19:28:16.588Z,3.95
2023-02-24T19:30:43.578Z,3.93
2023-02-24T19:33:10.253Z,3.93
2023-02-24T19:35:41.881Z,3.96
2023-02-24T19:38:11.930Z,4.02
2023-02-24T19:40:38.434Z,4.03
2023-02-24T19:43:04.863Z,4.04
2023-02-24T19:45:32.603Z,4.09
2023-02-24T19:47:59.240Z,4.10
2023-02-24T19:50:26.927Z,4.12
2023-02-24T19:52:53.661Z,4.16
2023-02-24T19:55:24.875Z,4.19
2023-02-24T19:57:54.808Z,4.23
2023-02-24T20:00:23.302Z,4.25
2023-02-24T20:02:51.047Z,4.27
2023-02-24T20:05:17.602Z,4.28
2023-02-24T20:07:45.262Z,4.29
2023-02-24T20:10:12.639Z,4.30
2023-02-24T20:12:39.733Z,4.32
2023-02-24T20:15:07.219Z,4.35
2023-02-24T20:17:34.638Z,4.36
2023-02-24T20:20:01.171Z,4.39
2023-02-24T20:22:27.646Z,4.41
2023-02-24T20:24:54.143Z,4.42
2023-02-24T20:27:20.632Z,4.44
2023-02-24T20:29:47.164Z,4.44
2023-02-24T20:32:13.790Z,4.45
2023-02-24T20:34:41.281Z,4.45
2023-02-24T20:37:07.787Z,4.44
2023-02-24T20:39:34.349Z,4.45
2023-02-24T20:42:00.930Z,4.44
2023-02-24T20:44:27.502Z,4.43
2023-02-24T20:46:54.503Z,4.40
2023-02-24T20:49:21.076Z,4.38
2023-02-24T20:51:48.670Z,4.37
2023-02-24T20:54:15.610Z,4.34
2023-02-24T20:56:44.042Z,4.29
2023-02-24T20:59:18.027Z,4.23
2023-02-24T21:01:47.541Z,4.19
2023-02-24T21:04:16.294Z,4.16
2023-02-24T21:06:43.205Z,4.14
2023-02-24T21:09:14.531Z,4.15
2023-02-24T21:11:41.342Z,4.17
2023-02-24T21:14:07.987Z,4.17
2023-02-24T21:16:37.760Z,4.17
2023-02-24T21:19:04.809Z,4.16
2023-02-24T21:21:33.724Z,4.17
2023-02-24T21:24:01.349Z,4.14
2023-02-24T21:26:29.137Z,4.04
2023-02-24T21:28:57.832Z,3.96
2023-02-24T21:31:26.168Z,3.88
2023-02-24T21:33:53.589Z,3.83
2023-02-24T21:36:23.551Z,3.80
2023-02-24T21:38:51.018Z,3.78
2023-02-24T21:41:20.510Z,3.78
2023-02-24T21:43:47.686Z,3.75
2023-02-24T21:46:15.596Z,3.76
2023-02-24T21:48:43.033Z,3.75
2023-02-24T21:51:11.939Z,3.76
2023-02-24T21:53:41.188Z,3.76
2023-02-24T21:56:16.390Z,3.73
2023-02-24T21:59:04.030Z,3.71
2023-02-24T22:01:32.308Z,3.64
2023-02-24T22:04:01.381Z,3.57
2023-02-24T22:06:32.015Z,3.49
2023-02-24T22:09:00.347Z,3.42
2023-02-24T22:11:27.391Z,3.36
2023-02-24T22:13:54.329Z,3.31
2023-02-24T22:16:23.416Z,3.27
2023-02-24T22:18:51.417Z,3.25
2023-02-24T22:21:20.737Z,3.21
2023-02-24T22:23:51.041Z,3.24
2023-02-24T22:26:18.860Z,3.27
2023-02-24T22:28:47.533Z,3.29
2023-02-24T22:31:16.800Z,3.29
2023-02-24T22:33:44.365Z,3.28
2023-02-24T22:36:16.750Z,3.28
2023-02-24T22:38:45.505Z,3.27
2023-02-24T22:41:18.698Z,3.20
2023-02-24T22:43:46.154Z,3.16
2023-02-24T22:46:22.831Z,3.10
2023-02-24T22:48:50.472Z,3.04
2023-02-24T22:51:18.541Z,2.99
2023-02-24T22:53:47.403Z,2.93
2023-02-24T22:56:16.419Z,2.90
2023-02-24T22:58:43.610Z,2.88
2023-02-24T23:01:12.665Z,2.87
2023-02-24T23:03:40.141Z,2.88
2023-02-24T23:06:10.091Z,2.90
2023-02-24T23:08:39.150Z,2.92
2023-02-24T23:11:30.000Z,2.94
2023-02-24T23:13:59.920Z,2.96
2023-02-24T23:16:29.441Z,2.96
2023-02-24T23:18:58.314Z,2.96
2023-02-24T23:21:33.791Z,2.91
2023-02-24T23:24:00.471Z,2.88
2023-02-24T23:26:35.857Z,2.81
2023-02-24T23:29:03.367Z,2.77
2023-02-24T23:31:30.516Z,2.76
2023-02-24T23:34:00.216Z,2.74
2023-02-24T23:36:26.814Z,2.76
2023-02-24T23:38:54.146Z,2.74
2023-02-24T23:41:20.751Z,2.72
2023-02-24T23:43:47.265Z,2.68
2023-02-24T23:46:15.157Z,2.66
2023-02-24T23:48:41.835Z,2.62
2023-02-24T23:51:12.881Z,2.62
2023-02-24T23:53:44.994Z,2.66
2023-02-24T23:56:18.837Z,2.75
2023-02-24T23:58:50.735Z,2.83
